Date,TemperatureHighF,TemperatureAvgF,TemperatureLowF,DewpointHighF,DewpointAvgF,DewpointLowF,HumidityHigh,HumidityAvg,HumidityLow,PressureMaxIn,PressureMinIn,WindSpeedMaxMPH,WindSpeedAvgMPH,GustSpeedMaxMPH,PrecipitationSumIn
2013-11-1,62,47,39,44,39,35,92,76,40,29.92,29.92,14,4,24,0.06
2013-11-2,61,46,35,41,35,31,91,69,35,29.92,29.92,8,2,11,0.00
2013-11-3,57,50,40,39,35,32,76,59,43,29.92,29.92,13,5,26,0.00
2013-11-4,62,50,34,45,39,29,86,67,42,29.92,29.92,7,2,12,0.00
2013-11-5,44,39,33,43,37,30,99,93,81,29.92,29.92,6,2,11,0.07
2013-11-6,43,36,29,37,32,27,99,88,75,29.92,29.92,8,2,11,0.01
2013-11-7,52,37,28,34,26,19,96,69,27,29.92,29.92,8,2,12,0.01
2013-11-8,64,48,31,39,32,24,75,56,31,29.92,29.92,12,4,20,0.00
2013-11-9,62,49,38,40,35,31,78,60,36,29.92,29.92,10,3,14,0.00
2013-11-10,56,44,29,37,30,25,86,61,32,29.92,29.92,6,2,12,0.00
2013-11-11,46,32,16,41,23,6,95,69,43,29.92,29.92,8,3,12,0.00
2013-11-12,37,22,9,12,5,-2,76,50,21,29.92,29.92,6,2,9,0.00
2013-11-13,56,39,24,29,20,6,61,47,32,29.92,29.92,11,4,19,0.00
2013-11-14,59,43,34,38,30,23,77,61,43,29.92,29.92,6,1,11,0.00
2013-11-15,59,43,27,44,34,24,94,72,44,29.92,29.92,7,2,15,0.00
2013-11-16,66,55,47,54,44,34,98,73,38,29.92,29.92,14,4,19,0.00
2013-11-17,57,47,37,46,39,32,87,72,51,30.21,29.92,10,3,13,0.01
2013-11-18,61,41,28,35,29,21,85,65,32,29.92,29.92,5,1,8,0.00
2013-11-19,64,49,35,34,27,20,68,44,21,29.92,29.92,11,4,24,0.00
2013-11-20,59,48,38,38,34,28,89,59,43,29.92,29.92,11,4,18,0.00
2013-11-21,38,28,20,35,22,15,94,79,63,29.92,29.92,8,4,17,0.00
2013-11-22,32,21,12,16,8,3,85,59,42,29.92,29.92,7,2,11,0.01
2013-11-23,27,17,10,13,2,-5,71,53,28,29.92,29.92,5,2,10,0.00
2013-11-24,34,22,10,14,7,1,68,53,36,29.92,29.92,9,4,17,0.00
2013-11-25,48,33,25,32,21,8,76,61,44,29.92,29.92,10,3,17,0.00
2013-11-26,32,26,15,24,12,-2,79,57,27,29.92,29.92,11,4,20,0.00
2013-11-27,35,23,8,16,8,-1,75,54,31,29.92,29.92,9,3,17,0.00
2013-11-28,38,27,17,21,15,8,77,61,41,29.92,29.92,8,2,13,0.00
2013-11-29,47,32,17,29,20,8,77,64,46,29.92,29.92,8,2,14,0.00
2013-11-30,61,40,26,34,26,19,83,61,32,29.92,29.92,4,1,6,0.00